sensor_id;sensor_type;location;lat;lon;timestamp;temperature;humidity
12959;DHT22;6544;51.666;6.634;2023-03-03T00:01:56;2.10;99.90
12959;DHT22;6544;51.666;6.634;2023-03-03T00:04:24;2.00;1.00
12959;DHT22;6544;51.666;6.634;2023-03-03T00:06:51;1.90;1.00
12959;DHT22;6544;51.666;6.634;2023-03-03T00:09:18;1.90;1.00
12959;DHT22;6544;51.666;6.634;2023-03-03T00:11:46;2.00;1.00
12959;DHT22;6544;51.666;6.634;2023-03-03T00:14:17;2.00;1.00
12959;DHT22;6544;51.666;6.634;2023-03-03T00:16:46;1.90;99.90
12959;DHT22;6544;51.666;6.634;2023-03-03T00:19:16;1.70;1.00
12959;DHT22;6544;51.666;6.634;2023-03-03T00:21:46;1.70;1.00
12959;DHT22;6544;51.666;6.634;2023-03-03T00:24:20;1.80;99.90
12959;DHT22;6544;51.666;6.634;2023-03-03T00:26:48;1.90;1.00
12959;DHT22;6544;51.666;6.634;2023-03-03T00:29:30;1.90;1.00
12959;DHT22;6544;51.666;6.634;2023-03-03T00:32:21;1.90;1.00
12959;DHT22;6544;51.666;6.634;2023-03-03T00:34:49;2.10;99.90
12959;DHT22;6544;51.666;6.634;2023-03-03T00:37:25;2.00;1.00
12959;DHT22;6544;51.666;6.634;2023-03-03T00:39:52;1.90;1.00
12959;DHT22;6544;51.666;6.634;2023-03-03T00:42:19;1.90;1.00
12959;DHT22;6544;51.666;6.634;2023-03-03T00:44:47;1.90;99.90
12959;DHT22;6544;51.666;6.634;2023-03-03T00:47:34;2.00;99.90
12959;DHT22;6544;51.666;6.634;2023-03-03T00:50:25;2.00;1.00
12959;DHT22;6544;51.666;6.634;2023-03-03T00:52:59;2.10;1.00
12959;DHT22;6544;51.666;6.634;2023-03-03T00:55:27;2.00;1.00
12959;DHT22;6544;51.666;6.634;2023-03-03T00:57:54;2.00;99.90
12959;DHT22;6544;51.666;6.634;2023-03-03T01:00:21;2.00;99.90
12959;DHT22;6544;51.666;6.634;2023-03-03T01:02:47;2.00;99.90
12959;DHT22;6544;51.666;6.634;2023-03-03T01:05:16;2.10;99.90
12959;DHT22;6544;51.666;6.634;2023-03-03T01:07:43;2.30;47.50
12959;DHT22;6544;51.666;6.634;2023-03-03T01:10:12;2.20;1.00
12959;DHT22;6544;51.666;6.634;2023-03-03T01:12:38;2.10;99.90
12959;DHT22;6544;51.666;6.634;2023-03-03T01:15:08;2.10;99.90
12959;DHT22;6544;51.666;6.634;2023-03-03T01:17:35;2.30;99.90
12959;DHT22;6544;51.666;6.634;2023-03-03T01:20:04;2.20;1.00
12959;DHT22;6544;51.666;6.634;2023-03-03T01:22:31;2.30;1.00
12959;DHT22;6544;51.666;6.634;2023-03-03T01:24:57;2.40;99.90
12959;DHT22;6544;51.666;6.634;2023-03-03T01:27:26;2.30;99.90
12959;DHT22;6544;51.666;6.634;2023-03-03T01:29:53;2.30;99.90
12959;DHT22;6544;51.666;6.634;2023-03-03T01:32:21;2.30;99.90
12959;DHT22;6544;51.666;6.634;2023-03-03T01:34:48;2.30;99.90
12959;DHT22;6544;51.666;6.634;2023-03-03T01:37:14;2.20;99.90
12959;DHT22;6544;51.666;6.634;2023-03-03T01:39:41;2.20;99.90
12959;DHT22;6544;51.666;6.634;2023-03-03T01:42:08;2.10;99.90
12959;DHT22;6544;51.666;6.634;2023-03-03T01:44:36;2.00;1.00
12959;DHT22;6544;51.666;6.634;2023-03-03T01:47:05;2.00;1.00
12959;DHT22;6544;51.666;6.634;2023-03-03T01:49:35;2.00;1.00
12959;DHT22;6544;51.666;6.634;2023-03-03T01:52:11;1.90;1.00
12959;DHT22;6544;51.666;6.634;2023-03-03T01:54:41;1.90;1.00
12959;DHT22;6544;51.666;6.634;2023-03-03T01:57:12;1.90;1.00
12959;DHT22;6544;51.666;6.634;2023-03-03T01:59:45;1.80;99.90
12959;DHT22;6544;51.666;6.634;2023-03-03T02:02:13;1.90;1.00
12959;DHT22;6544;51.666;6.634;2023-03-03T02:04:40;1.90;1.00
12959;DHT22;6544;51.666;6.634;2023-03-03T02:07:08;2.00;99.90
12959;DHT22;6544;51.666;6.634;2023-03-03T02:09:42;1.90;99.90
12959;DHT22;6544;51.666;6.634;2023-03-03T02:12:13;1.80;99.90
12959;DHT22;6544;51.666;6.634;2023-03-03T02:14:43;1.70;1.00
12959;DHT22;6544;51.666;6.634;2023-03-03T02:17:10;1.70;1.00
12959;DHT22;6544;51.666;6.634;2023-03-03T02:19:44;1.70;99.90
12959;DHT22;6544;51.666;6.634;2023-03-03T02:22:14;1.70;99.90
12959;DHT22;6544;51.666;6.634;2023-03-03T02:24:45;1.60;99.90
12959;DHT22;6544;51.666;6.634;2023-03-03T02:27:14;1.40;1.00
12959;DHT22;6544;51.666;6.634;2023-03-03T02:29:41;1.50;99.90
12959;DHT22;6544;51.666;6.634;2023-03-03T02:32:07;1.50;99.90
12959;DHT22;6544;51.666;6.634;2023-03-03T02:34:47;1.50;99.90
12959;DHT22;6544;51.666;6.634;2023-03-03T02:37:14;1.50;99.90
12959;DHT22;6544;51.666;6.634;2023-03-03T02:39:42;1.40;99.90
12959;DHT22;6544;51.666;6.634;2023-03-03T02:42:15;1.40;15.40
12959;DHT22;6544;51.666;6.634;2023-03-03T02:44:45;1.20;99.90
12959;DHT22;6544;51.666;6.634;2023-03-03T02:47:12;1.40;1.00
12959;DHT22;6544;51.666;6.634;2023-03-03T02:49:39;1.40;1.00
12959;DHT22;6544;51.666;6.634;2023-03-03T02:52:08;1.40;1.40
12959;DHT22;6544;51.666;6.634;2023-03-03T02:54:37;1.40;1.00
12959;DHT22;6544;51.666;6.634;2023-03-03T02:57:04;1.30;99.90
12959;DHT22;6544;51.666;6.634;2023-03-03T02:59:34;1.30;1.00
12959;DHT22;6544;51.666;6.634;2023-03-03T03:02:01;1.40;99.90
12959;DHT22;6544;51.666;6.634;2023-03-03T03:04:28;1.30;1.00
12959;DHT22;6544;51.666;6.634;2023-03-03T03:06:55;1.40;1.00
12959;DHT22;6544;51.666;6.634;2023-03-03T03:09:23;1.50;99.90
12959;DHT22;6544;51.666;6.634;2023-03-03T03:11:50;1.40;9.60
12959;DHT22;6544;51.666;6.634;2023-03-03T03:14:17;1.50;99.90
12959;DHT22;6544;51.666;6.634;2023-03-03T03:16:45;1.40;83.10
12959;DHT22;6544;51.666;6.634;2023-03-03T03:19:12;1.40;99.90
12959;DHT22;6544;51.666;6.634;2023-03-03T03:21:39;1.20;1.00
12959;DHT22;6544;51.666;6.634;2023-03-03T03:24:06;1.30;1.00
12959;DHT22;6544;51.666;6.634;2023-03-03T03:26:33;1.30;1.00
12959;DHT22;6544;51.666;6.634;2023-03-03T03:29:00;1.50;1.00
12959;DHT22;6544;51.666;6.634;2023-03-03T03:31:27;1.50;99.90
12959;DHT22;6544;51.666;6.634;2023-03-03T03:33:55;1.50;1.00
12959;DHT22;6544;51.666;6.634;2023-03-03T03:36:22;1.20;1.00
12959;DHT22;6544;51.666;6.634;2023-03-03T03:38:49;1.30;99.90
12959;DHT22;6544;51.666;6.634;2023-03-03T03:41:16;1.20;99.90
12959;DHT22;6544;51.666;6.634;2023-03-03T03:43:43;1.20;1.00
12959;DHT22;6544;51.666;6.634;2023-03-03T03:46:10;1.20;99.90
12959;DHT22;6544;51.666;6.634;2023-03-03T03:48:37;1.20;99.90
12959;DHT22;6544;51.666;6.634;2023-03-03T03:51:06;1.10;99.90
12959;DHT22;6544;51.666;6.634;2023-03-03T03:53:33;1.10;99.90
12959;DHT22;6544;51.666;6.634;2023-03-03T03:55:59;1.10;99.90
12959;DHT22;6544;51.666;6.634;2023-03-03T03:58:26;1.30;99.90
12959;DHT22;6544;51.666;6.634;2023-03-03T04:00:53;1.20;99.90
12959;DHT22;6544;51.666;6.634;2023-03-03T04:03:20;1.40;45.10
12959;DHT22;6544;51.666;6.634;2023-03-03T04:05:47;1.30;1.00
12959;DHT22;6544;51.666;6.634;2023-03-03T04:08:16;1.30;1.00
12959;DHT22;6544;51.666;6.634;2023-03-03T04:10:43;1.30;1.00
12959;DHT22;6544;51.666;6.634;2023-03-03T04:13:10;1.40;1.00
12959;DHT22;6544;51.666;6.634;2023-03-03T04:15:37;1.40;1.00
12959;DHT22;6544;51.666;6.634;2023-03-03T04:18:04;1.50;1.00
12959;DHT22;6544;51.666;6.634;2023-03-03T04:20:31;1.50;99.90
12959;DHT22;6544;51.666;6.634;2023-03-03T04:22:58;1.50;99.90
12959;DHT22;6544;51.666;6.634;2023-03-03T04:25:26;1.60;99.90
12959;DHT22;6544;51.666;6.634;2023-03-03T04:27:53;1.60;99.90
12959;DHT22;6544;51.666;6.634;2023-03-03T04:30:20;1.70;1.00
12959;DHT22;6544;51.666;6.634;2023-03-03T04:32:47;1.80;1.00
12959;DHT22;6544;51.666;6.634;2023-03-03T04:35:14;1.80;1.00
12959;DHT22;6544;51.666;6.634;2023-03-03T04:37:41;1.70;1.00
12959;DHT22;6544;51.666;6.634;2023-03-03T04:40:09;1.70;99.90
12959;DHT22;6544;51.666;6.634;2023-03-03T04:42:37;1.80;1.00
12959;DHT22;6544;51.666;6.634;2023-03-03T04:45:05;1.90;99.90
12959;DHT22;6544;51.666;6.634;2023-03-03T04:47:32;1.90;99.90
12959;DHT22;6544;51.666;6.634;2023-03-03T04:49:59;2.00;4.00
12959;DHT22;6544;51.666;6.634;2023-03-03T04:52:26;1.90;1.00
12959;DHT22;6544;51.666;6.634;2023-03-03T04:54:54;1.90;1.00
12959;DHT22;6544;51.666;6.634;2023-03-03T04:57:20;2.00;1.00
12959;DHT22;6544;51.666;6.634;2023-03-03T04:59:49;1.80;1.00
12959;DHT22;6544;51.666;6.634;2023-03-03T05:02:16;1.80;1.00
12959;DHT22;6544;51.666;6.634;2023-03-03T05:04:43;1.80;1.00
12959;DHT22;6544;51.666;6.634;2023-03-03T05:07:10;1.90;1.00
12959;DHT22;6544;51.666;6.634;2023-03-03T05:09:37;1.90;1.00
12959;DHT22;6544;51.666;6.634;2023-03-03T05:12:04;1.90;1.00
12959;DHT22;6544;51.666;6.634;2023-03-03T05:14:31;1.90;1.00
12959;DHT22;6544;51.666;6.634;2023-03-03T05:16:59;1.90;1.00
12959;DHT22;6544;51.666;6.634;2023-03-03T05:19:26;1.90;1.00
12959;DHT22;6544;51.666;6.634;2023-03-03T05:21:53;1.80;1.00
12959;DHT22;6544;51.666;6.634;2023-03-03T05:24:20;1.70;1.00
12959;DHT22;6544;51.666;6.634;2023-03-03T05:26:47;1.90;1.00
12959;DHT22;6544;51.666;6.634;2023-03-03T05:29:13;2.00;1.00
12959;DHT22;6544;51.666;6.634;2023-03-03T05:31:40;2.00;1.00
12959;DHT22;6544;51.666;6.634;2023-03-03T05:34:08;1.90;1.00
12959;DHT22;6544;51.666;6.634;2023-03-03T05:36:35;2.00;1.00
12959;DHT22;6544;51.666;6.634;2023-03-03T05:39:03;2.10;1.00
12959;DHT22;6544;51.666;6.634;2023-03-03T05:41:30;2.10;99.90
12959;DHT22;6544;51.666;6.634;2023-03-03T05:43:57;2.10;99.90
12959;DHT22;6544;51.666;6.634;2023-03-03T05:46:23;2.00;99.90
12959;DHT22;6544;51.666;6.634;2023-03-03T05:48:50;1.90;1.00
12959;DHT22;6544;51.666;6.634;2023-03-03T05:51:19;2.00;1.00
12959;DHT22;6544;51.666;6.634;2023-03-03T05:53:45;2.10;1.00
12959;DHT22;6544;51.666;6.634;2023-03-03T05:56:12;2.10;1.00
12959;DHT22;6544;51.666;6.634;2023-03-03T05:58:39;2.10;1.00
12959;DHT22;6544;51.666;6.634;2023-03-03T06:01:06;2.20;1.00
12959;DHT22;6544;51.666;6.634;2023-03-03T06:03:33;2.20;99.90
12959;DHT22;6544;51.666;6.634;2023-03-03T06:06:00;2.10;99.90
12959;DHT22;6544;51.666;6.634;2023-03-03T06:08:28;2.10;99.90
12959;DHT22;6544;51.666;6.634;2023-03-03T06:10:56;2.10;99.90
12959;DHT22;6544;51.666;6.634;2023-03-03T06:13:23;1.90;1.00
12959;DHT22;6544;51.666;6.634;2023-03-03T06:15:50;1.90;1.00
12959;DHT22;6544;51.666;6.634;2023-03-03T06:18:18;1.90;1.00
12959;DHT22;6544;51.666;6.634;2023-03-03T06:20:49;2.00;1.00
12959;DHT22;6544;51.666;6.634;2023-03-03T06:23:16;2.00;1.00
12959;DHT22;6544;51.666;6.634;2023-03-03T06:25:44;2.00;1.00
12959;DHT22;6544;51.666;6.634;2023-03-03T06:28:12;2.00;1.00
12959;DHT22;6544;51.666;6.634;2023-03-03T06:30:39;2.00;1.00
12959;DHT22;6544;51.666;6.634;2023-03-03T06:33:06;2.00;1.00
12959;DHT22;6544;51.666;6.634;2023-03-03T06:35:33;1.90;17.50
12959;DHT22;6544;51.666;6.634;2023-03-03T06:38:00;1.90;99.90
12959;DHT22;6544;51.666;6.634;2023-03-03T06:40:26;1.90;99.90
12959;DHT22;6544;51.666;6.634;2023-03-03T06:42:55;1.90;99.90
12959;DHT22;6544;51.666;6.634;2023-03-03T06:45:21;1.80;1.00
12959;DHT22;6544;51.666;6.634;2023-03-03T06:47:48;1.90;1.00
12959;DHT22;6544;51.666;6.634;2023-03-03T06:50:17;1.80;1.00
12959;DHT22;6544;51.666;6.634;2023-03-03T06:52:45;1.80;1.00
12959;DHT22;6544;51.666;6.634;2023-03-03T06:55:17;1.80;1.00
12959;DHT22;6544;51.666;6.634;2023-03-03T06:57:44;1.70;1.00
12959;DHT22;6544;51.666;6.634;2023-03-03T07:00:16;1.80;99.90
12959;DHT22;6544;51.666;6.634;2023-03-03T07:02:44;1.80;99.90
12959;DHT22;6544;51.666;6.634;2023-03-03T07:05:13;1.90;1.00
12959;DHT22;6544;51.666;6.634;2023-03-03T07:07:41;1.80;1.00
12959;DHT22;6544;51.666;6.634;2023-03-03T07:10:19;1.70;99.90
12959;DHT22;6544;51.666;6.634;2023-03-03T07:12:47;1.70;1.00
12959;DHT22;6544;51.666;6.634;2023-03-03T07:15:19;1.70;1.00
12959;DHT22;6544;51.666;6.634;2023-03-03T07:17:48;1.80;1.00
12959;DHT22;6544;51.666;6.634;2023-03-03T07:20:19;1.70;1.00
12959;DHT22;6544;51.666;6.634;2023-03-03T07:22:46;1.70;1.00
12959;DHT22;6544;51.666;6.634;2023-03-03T07:25:20;1.70;1.00
12959;DHT22;6544;51.666;6.634;2023-03-03T07:27:47;1.70;1.00
12959;DHT22;6544;51.666;6.634;2023-03-03T07:30:23;1.70;1.00
12959;DHT22;6544;51.666;6.634;2023-03-03T07:32:52;1.80;1.00
12959;DHT22;6544;51.666;6.634;2023-03-03T07:35:30;1.90;1.00
12959;DHT22;6544;51.666;6.634;2023-03-03T07:38:02;1.80;1.00
12959;DHT22;6544;51.666;6.634;2023-03-03T07:40:34;1.70;99.90
12959;DHT22;6544;51.666;6.634;2023-03-03T07:43:22;1.80;1.00
12959;DHT22;6544;51.666;6.634;2023-03-03T07:46:02;1.80;1.00
12959;DHT22;6544;51.666;6.634;2023-03-03T07:48:34;1.90;1.00
12959;DHT22;6544;51.666;6.634;2023-03-03T07:51:04;1.80;99.90
12959;DHT22;6544;51.666;6.634;2023-03-03T07:53:33;1.80;1.00
12959;DHT22;6544;51.666;6.634;2023-03-03T07:56:06;1.80;1.00
12959;DHT22;6544;51.666;6.634;2023-03-03T07:58:41;1.80;99.90
12959;DHT22;6544;51.666;6.634;2023-03-03T08:01:28;1.80;99.90
12959;DHT22;6544;51.666;6.634;2023-03-03T08:03:57;1.80;99.90
12959;DHT22;6544;51.666;6.634;2023-03-03T08:06:34;1.80;1.00
12959;DHT22;6544;51.666;6.634;2023-03-03T08:09:24;1.80;99.90
12959;DHT22;6544;51.666;6.634;2023-03-03T08:11:54;1.80;99.90
12959;DHT22;6544;51.666;6.634;2023-03-03T08:14:26;1.80;97.70
12959;DHT22;6544;51.666;6.634;2023-03-03T08:16:56;1.80;98.90
12959;DHT22;6544;51.666;6.634;2023-03-03T08:19:23;1.90;1.00
12959;DHT22;6544;51.666;6.634;2023-03-03T08:21:50;1.90;1.00
12959;DHT22;6544;51.666;6.634;2023-03-03T08:24:17;1.90;1.00
12959;DHT22;6544;51.666;6.634;2023-03-03T08:26:44;1.80;1.00
12959;DHT22;6544;51.666;6.634;2023-03-03T08:29:11;1.90;1.00
12959;DHT22;6544;51.666;6.634;2023-03-03T08:31:38;2.00;1.00
12959;DHT22;6544;51.666;6.634;2023-03-03T08:34:07;2.10;99.90
12959;DHT22;6544;51.666;6.634;2023-03-03T08:36:34;2.20;1.00
12959;DHT22;6544;51.666;6.634;2023-03-03T08:39:01;2.30;99.90
12959;DHT22;6544;51.666;6.634;2023-03-03T08:41:28;2.10;99.90
12959;DHT22;6544;51.666;6.634;2023-03-03T08:43:55;2.10;99.90
12959;DHT22;6544;51.666;6.634;2023-03-03T08:46:22;2.10;99.90
12959;DHT22;6544;51.666;6.634;2023-03-03T08:48:49;2.10;99.90
12959;DHT22;6544;51.666;6.634;2023-03-03T08:51:17;2.10;99.90
12959;DHT22;6544;51.666;6.634;2023-03-03T08:53:44;2.10;99.90
12959;DHT22;6544;51.666;6.634;2023-03-03T08:56:11;2.10;95.10
12959;DHT22;6544;51.666;6.634;2023-03-03T08:58:38;2.10;32.10
12959;DHT22;6544;51.666;6.634;2023-03-03T09:01:06;2.10;1.00
12959;DHT22;6544;51.666;6.634;2023-03-03T09:03:33;2.10;1.00
12959;DHT22;6544;51.666;6.634;2023-03-03T09:06:00;2.10;1.00
12959;DHT22;6544;51.666;6.634;2023-03-03T09:08:28;2.20;1.00
12959;DHT22;6544;51.666;6.634;2023-03-03T09:10:55;2.20;1.00
12959;DHT22;6544;51.666;6.634;2023-03-03T09:13:22;2.30;1.00
12959;DHT22;6544;51.666;6.634;2023-03-03T09:15:49;2.30;1.00
12959;DHT22;6544;51.666;6.634;2023-03-03T09:18:17;2.30;1.00
12959;DHT22;6544;51.666;6.634;2023-03-03T09:20:45;2.20;99.90
12959;DHT22;6544;51.666;6.634;2023-03-03T09:23:30;2.20;99.90
12959;DHT22;6544;51.666;6.634;2023-03-03T09:26:14;2.30;99.90
12959;DHT22;6544;51.666;6.634;2023-03-03T09:28:45;2.30;99.90
12959;DHT22;6544;51.666;6.634;2023-03-03T09:31:23;2.50;99.90
12959;DHT22;6544;51.666;6.634;2023-03-03T09:33:50;2.60;99.90
12959;DHT22;6544;51.666;6.634;2023-03-03T09:36:22;2.60;1.00
12959;DHT22;6544;51.666;6.634;2023-03-03T09:38:52;2.40;1.00
12959;DHT22;6544;51.666;6.634;2023-03-03T09:44:42;2.50;19.80
12959;DHT22;6544;51.666;6.634;2023-03-03T09:47:27;2.60;1.00
12959;DHT22;6544;51.666;6.634;2023-03-03T09:50:01;2.60;1.00
12959;DHT22;6544;51.666;6.634;2023-03-03T09:52:38;2.50;1.00
12959;DHT22;6544;51.666;6.634;2023-03-03T09:55:26;2.50;1.00
12959;DHT22;6544;51.666;6.634;2023-03-03T09:58:06;2.60;8.00
12959;DHT22;6544;51.666;6.634;2023-03-03T10:00:41;2.60;1.00
12959;DHT22;6544;51.666;6.634;2023-03-03T10:03:42;2.60;1.00
12959;DHT22;6544;51.666;6.634;2023-03-03T10:06:18;2.60;1.00
12959;DHT22;6544;51.666;6.634;2023-03-03T10:09:01;2.70;1.00
12959;DHT22;6544;51.666;6.634;2023-03-03T10:11:37;2.60;1.00
12959;DHT22;6544;51.666;6.634;2023-03-03T10:14:25;2.60;1.00
12959;DHT22;6544;51.666;6.634;2023-03-03T10:17:14;2.50;1.00
12959;DHT22;6544;51.666;6.634;2023-03-03T10:19:53;2.50;1.00
12959;DHT22;6544;51.666;6.634;2023-03-03T10:22:29;2.60;1.00
12959;DHT22;6544;51.666;6.634;2023-03-03T10:25:12;2.70;1.00
12959;DHT22;6544;51.666;6.634;2023-03-03T10:28:03;2.90;1.00
12959;DHT22;6544;51.666;6.634;2023-03-03T10:30:39;3.00;1.00
12959;DHT22;6544;51.666;6.634;2023-03-03T10:33:12;3.30;1.00
12959;DHT22;6544;51.666;6.634;2023-03-03T10:38:49;3.40;99.90
12959;DHT22;6544;51.666;6.634;2023-03-03T10:41:40;3.50;99.90
12959;DHT22;6544;51.666;6.634;2023-03-03T10:44:26;3.60;99.90
12959;DHT22;6544;51.666;6.634;2023-03-03T10:47:16;3.80;99.90
12959;DHT22;6544;51.666;6.634;2023-03-03T10:49:55;4.00;99.90
12959;DHT22;6544;51.666;6.634;2023-03-03T10:52:38;4.10;99.90
12959;DHT22;6544;51.666;6.634;2023-03-03T10:55:29;4.40;99.90
12959;DHT22;6544;51.666;6.634;2023-03-03T11:00:50;4.60;99.90
12959;DHT22;6544;51.666;6.634;2023-03-03T11:03:55;4.80;99.90
12959;DHT22;6544;51.666;6.634;2023-03-03T11:06:36;4.90;99.90
12959;DHT22;6544;51.666;6.634;2023-03-03T11:09:12;5.10;71.70
12959;DHT22;6544;51.666;6.634;2023-03-03T11:11:49;5.30;92.30
12959;DHT22;6544;51.666;6.634;2023-03-03T11:14:25;5.30;1.00
12959;DHT22;6544;51.666;6.634;2023-03-03T11:16:59;5.50;51.00
12959;DHT22;6544;51.666;6.634;2023-03-03T11:19:39;5.60;1.00
12959;DHT22;6544;51.666;6.634;2023-03-03T11:22:21;5.80;1.00
12959;DHT22;6544;51.666;6.634;2023-03-03T11:24:59;6.00;1.00
12959;DHT22;6544;51.666;6.634;2023-03-03T11:27:48;6.20;1.00
12959;DHT22;6544;51.666;6.634;2023-03-03T11:30:30;6.30;1.00
12959;DHT22;6544;51.666;6.634;2023-03-03T11:33:03;6.50;1.00
12959;DHT22;6544;51.666;6.634;2023-03-03T11:35:37;6.50;1.00
12959;DHT22;6544;51.666;6.634;2023-03-03T11:38:23;6.00;1.00
12959;DHT22;6544;51.666;6.634;2023-03-03T11:40:55;6.20;1.00
12959;DHT22;6544;51.666;6.634;2023-03-03T11:43:26;6.40;1.00
12959;DHT22;6544;51.666;6.634;2023-03-03T11:45:57;6.60;1.00
12959;DHT22;6544;51.666;6.634;2023-03-03T11:48:35;6.50;1.00
12959;DHT22;6544;51.666;6.634;2023-03-03T11:51:06;6.40;1.00
12959;DHT22;6544;51.666;6.634;2023-03-03T11:53:46;6.30;1.00
12959;DHT22;6544;51.666;6.634;2023-03-03T11:56:21;6.30;1.00
12959;DHT22;6544;51.666;6.634;2023-03-03T11:58:57;6.10;1.00
12959;DHT22;6544;51.666;6.634;2023-03-03T12:01:35;5.90;1.00
12959;DHT22;6544;51.666;6.634;2023-03-03T12:04:10;5.90;1.00
12959;DHT22;6544;51.666;6.634;2023-03-03T12:07:00;6.10;1.00
12959;DHT22;6544;51.666;6.634;2023-03-03T12:09:39;6.90;1.00
12959;DHT22;6544;51.666;6.634;2023-03-03T12:12:13;7.00;1.00
12959;DHT22;6544;51.666;6.634;2023-03-03T12:14:52;6.40;1.00
12959;DHT22;6544;51.666;6.634;2023-03-03T12:17:35;6.40;1.00
12959;DHT22;6544;51.666;6.634;2023-03-03T12:20:11;6.40;1.00
12959;DHT22;6544;51.666;6.634;2023-03-03T12:22:45;6.70;1.00
12959;DHT22;6544;51.666;6.634;2023-03-03T12:25:32;6.90;1.00
12959;DHT22;6544;51.666;6.634;2023-03-03T12:28:05;7.00;1.00
12959;DHT22;6544;51.666;6.634;2023-03-03T12:33:39;7.80;1.00
12959;DHT22;6544;51.666;6.634;2023-03-03T12:36:22;8.00;1.00
12959;DHT22;6544;51.666;6.634;2023-03-03T12:38:56;8.20;1.00
12959;DHT22;6544;51.666;6.634;2023-03-03T12:41:31;8.10;1.00
12959;DHT22;6544;51.666;6.634;2023-03-03T12:44:05;8.20;1.00
12959;DHT22;6544;51.666;6.634;2023-03-03T12:46:41;8.60;1.00
12959;DHT22;6544;51.666;6.634;2023-03-03T12:49:10;9.00;1.00
12959;DHT22;6544;51.666;6.634;2023-03-03T12:51:47;8.30;1.00
12959;DHT22;6544;51.666;6.634;2023-03-03T12:54:36;7.70;1.00
12959;DHT22;6544;51.666;6.634;2023-03-03T12:57:18;8.10;1.00
12959;DHT22;6544;51.666;6.634;2023-03-03T13:00:00;8.70;1.00
12959;DHT22;6544;51.666;6.634;2023-03-03T13:02:38;8.30;1.00
12959;DHT22;6544;51.666;6.634;2023-03-03T13:05:23;7.30;1.00
12959;DHT22;6544;51.666;6.634;2023-03-03T13:08:08;7.40;1.00
12959;DHT22;6544;51.666;6.634;2023-03-03T13:10:40;6.80;1.00
12959;DHT22;6544;51.666;6.634;2023-03-03T13:13:13;7.10;1.00
12959;DHT22;6544;51.666;6.634;2023-03-03T13:15:44;7.40;1.00
12959;DHT22;6544;51.666;6.634;2023-03-03T13:18:24;7.90;1.00
12959;DHT22;6544;51.666;6.634;2023-03-03T13:21:00;8.60;1.00
12959;DHT22;6544;51.666;6.634;2023-03-03T13:23:39;8.60;1.00
12959;DHT22;6544;51.666;6.634;2023-03-03T13:26:12;7.40;1.00
12959;DHT22;6544;51.666;6.634;2023-03-03T13:28:46;7.30;1.00
12959;DHT22;6544;51.666;6.634;2023-03-03T13:31:20;7.70;1.00
12959;DHT22;6544;51.666;6.634;2023-03-03T13:33:53;8.00;1.00
12959;DHT22;6544;51.666;6.634;2023-03-03T13:36:22;7.80;1.00
12959;DHT22;6544;51.666;6.634;2023-03-03T13:38:55;8.00;1.00
12959;DHT22;6544;51.666;6.634;2023-03-03T13:41:27;7.80;1.00
12959;DHT22;6544;51.666;6.634;2023-03-03T13:44:00;7.80;1.00
12959;DHT22;6544;51.666;6.634;2023-03-03T13:46:36;7.50;1.00
12959;DHT22;6544;51.666;6.634;2023-03-03T13:49:22;7.20;1.00
12959;DHT22;6544;51.666;6.634;2023-03-03T13:51:57;7.50;1.00
12959;DHT22;6544;51.666;6.634;2023-03-03T13:54:48;7.50;1.00
12959;DHT22;6544;51.666;6.634;2023-03-03T13:57:25;7.20;1.00
12959;DHT22;6544;51.666;6.634;2023-03-03T14:00:03;7.10;1.00
12959;DHT22;6544;51.666;6.634;2023-03-03T14:02:48;7.20;1.00
12959;DHT22;6544;51.666;6.634;2023-03-03T14:05:25;7.20;1.00
12959;DHT22;6544;51.666;6.634;2023-03-03T14:07:58;7.30;1.00
12959;DHT22;6544;51.666;6.634;2023-03-03T14:10:31;7.60;1.00
12959;DHT22;6544;51.666;6.634;2023-03-03T14:13:02;7.80;1.00
12959;DHT22;6544;51.666;6.634;2023-03-03T14:15:32;7.50;1.00
12959;DHT22;6544;51.666;6.634;2023-03-03T14:18:14;7.40;1.00
12959;DHT22;6544;51.666;6.634;2023-03-03T14:20:46;6.90;1.00
12959;DHT22;6544;51.666;6.634;2023-03-03T14:23:18;6.60;1.00
12959;DHT22;6544;51.666;6.634;2023-03-03T14:25:53;6.60;1.00
12959;DHT22;6544;51.666;6.634;2023-03-03T14:28:21;6.70;1.00
12959;DHT22;6544;51.666;6.634;2023-03-03T14:30:52;6.90;1.00
12959;DHT22;6544;51.666;6.634;2023-03-03T14:33:21;7.00;1.00
12959;DHT22;6544;51.666;6.634;2023-03-03T14:36:03;7.00;1.00
12959;DHT22;6544;51.666;6.634;2023-03-03T14:38:44;6.90;1.00
12959;DHT22;6544;51.666;6.634;2023-03-03T14:41:21;6.80;1.00
12959;DHT22;6544;51.666;6.634;2023-03-03T14:44:01;6.60;1.00
12959;DHT22;6544;51.666;6.634;2023-03-03T14:47:01;6.60;1.00
12959;DHT22;6544;51.666;6.634;2023-03-03T14:49:29;6.50;1.00
12959;DHT22;6544;51.666;6.634;2023-03-03T14:52:01;6.60;1.00
12959;DHT22;6544;51.666;6.634;2023-03-03T14:54:35;6.50;1.00
12959;DHT22;6544;51.666;6.634;2023-03-03T14:57:11;6.40;1.00
12959;DHT22;6544;51.666;6.634;2023-03-03T14:59:38;6.60;1.00
12959;DHT22;6544;51.666;6.634;2023-03-03T15:02:30;6.70;1.00
12959;DHT22;6544;51.666;6.634;2023-03-03T15:05:20;7.00;1.00
12959;DHT22;6544;51.666;6.634;2023-03-03T15:07:50;7.10;1.00
12959;DHT22;6544;51.666;6.634;2023-03-03T15:10:31;6.80;1.00
12959;DHT22;6544;51.666;6.634;2023-03-03T15:13:22;6.70;1.00
12959;DHT22;6544;51.666;6.634;2023-03-03T15:16:01;6.70;1.00
12959;DHT22;6544;51.666;6.634;2023-03-03T15:18:29;6.50;1.00
12959;DHT22;6544;51.666;6.634;2023-03-03T15:21:02;6.60;1.00
12959;DHT22;6544;51.666;6.634;2023-03-03T15:23:38;6.70;1.00
12959;DHT22;6544;51.666;6.634;2023-03-03T15:26:13;6.80;1.00
12959;DHT22;6544;51.666;6.634;2023-03-03T15:28:57;6.90;1.00
12959;DHT22;6544;51.666;6.634;2023-03-03T15:31:35;6.90;1.00
12959;DHT22;6544;51.666;6.634;2023-03-03T15:34:23;6.90;1.00
12959;DHT22;6544;51.666;6.634;2023-03-03T15:36:58;7.00;1.00
12959;DHT22;6544;51.666;6.634;2023-03-03T15:39:31;6.90;1.00
12959;DHT22;6544;51.666;6.634;2023-03-03T15:42:04;7.00;1.00
12959;DHT22;6544;51.666;6.634;2023-03-03T15:44:42;7.00;1.00
12959;DHT22;6544;51.666;6.634;2023-03-03T15:47:37;6.90;1.00
12959;DHT22;6544;51.666;6.634;2023-03-03T15:50:20;7.00;1.00
12959;DHT22;6544;51.666;6.634;2023-03-03T15:52:55;7.00;1.00
12959;DHT22;6544;51.666;6.634;2023-03-03T15:55:34;7.00;1.00
12959;DHT22;6544;51.666;6.634;2023-03-03T15:58:19;6.90;1.00
12959;DHT22;6544;51.666;6.634;2023-03-03T16:00:57;6.80;1.00
12959;DHT22;6544;51.666;6.634;2023-03-03T16:03:28;6.90;1.00
12959;DHT22;6544;51.666;6.634;2023-03-03T16:06:02;6.80;1.00
12959;DHT22;6544;51.666;6.634;2023-03-03T16:08:41;6.90;1.00
12959;DHT22;6544;51.666;6.634;2023-03-03T16:11:17;6.90;1.00
12959;DHT22;6544;51.666;6.634;2023-03-03T16:13:56;6.90;1.00
12959;DHT22;6544;51.666;6.634;2023-03-03T16:16:39;6.90;1.00
12959;DHT22;6544;51.666;6.634;2023-03-03T16:19:17;6.90;1.00
12959;DHT22;6544;51.666;6.634;2023-03-03T16:22:02;7.00;1.00
12959;DHT22;6544;51.666;6.634;2023-03-03T16:24:39;6.90;1.00
12959;DHT22;6544;51.666;6.634;2023-03-03T16:27:15;6.90;1.00
12959;DHT22;6544;51.666;6.634;2023-03-03T16:30:02;6.90;1.00
12959;DHT22;6544;51.666;6.634;2023-03-03T16:32:38;6.80;1.00
12959;DHT22;6544;51.666;6.634;2023-03-03T16:35:18;6.60;1.00
12959;DHT22;6544;51.666;6.634;2023-03-03T16:37:53;6.60;1.00
12959;DHT22;6544;51.666;6.634;2023-03-03T16:40:25;6.70;1.00
12959;DHT22;6544;51.666;6.634;2023-03-03T16:42:58;6.90;1.00
12959;DHT22;6544;51.666;6.634;2023-03-03T16:45:33;7.00;1.00
12959;DHT22;6544;51.666;6.634;2023-03-03T16:48:32;7.00;1.00
12959;DHT22;6544;51.666;6.634;2023-03-03T16:51:15;7.20;1.00
12959;DHT22;6544;51.666;6.634;2023-03-03T16:53:51;7.30;1.00
12959;DHT22;6544;51.666;6.634;2023-03-03T16:56:21;7.20;1.00
12959;DHT22;6544;51.666;6.634;2023-03-03T16:59:02;7.10;1.00
12959;DHT22;6544;51.666;6.634;2023-03-03T17:01:39;6.80;1.00